Time;durP1;ratioP1;P1;durP2;ratioP2;P2;SDS_P1;SDS_P2;PMS_P1;PMS_P2;Temp;Humidity;BMP_temperature;BMP_pressure;BME280_temperature;BME280_humidity;BME280_pressure;Samples;Min_cycle;Max_cycle;Signal;HPM_P1;HPM_P2
2022/01/28 00:00:18;;;;;;;;;;;;;;;4.83;82.45;100611.00;5095612;28;20715;-66
2022/01/28 00:02:54;;;;;;;;;;;;;;;4.93;82.53;100622.78;5093082;28;19919;-66
2022/01/28 00:05:22;;;;;;;;;;;;;;;4.93;82.42;100611.31;5097575;28;19950;-66
2022/01/28 00:07:48;;;;;;;;;;;;;;;4.85;82.97;100621.53;5097711;28;20027;-66
2022/01/28 00:10:13;;;;;;;;;;;;;;;4.80;83.06;100624.47;5103054;28;19915;-66
2022/01/28 00:39:44;;;;;;;;;;;;;;;4.45;86.49;100623.03;5097614;28;19915;-72
2022/01/28 00:42:09;;;;;;;;;;;;;;;4.39;86.73;100624.22;5098941;28;19926;-72
2022/01/28 00:44:34;;;;;;;;;;;;;;;4.38;87.12;100619.00;5097718;28;19998;-72
2022/01/28 00:47:00;;;;;;;;;;;;;;;4.42;86.94;100601.97;5103675;28;19915;-67
2022/01/28 00:49:25;;;;;;;;;;;;;;;4.37;87.05;100606.69;5099032;28;20708;-67
2022/01/28 00:51:51;;;;;;;;;;;;;;;4.30;87.68;100626.56;5089215;28;19912;-67
2022/01/28 00:54:19;;;;;;;;;;;;;;;4.34;88.06;100628.09;5080461;28;19925;-67
2022/01/28 00:56:45;;;;;;;;;;;;;;;4.28;88.46;100644.38;5086631;28;19972;-67
2022/01/28 00:59:11;;;;;;;;;;;;;;;4.33;88.24;100637.03;5083575;28;20574;-71
2022/01/28 01:01:37;;;;;;;;;;;;;;;4.29;88.13;100632.84;5107156;28;19911;-67
2022/01/28 01:04:02;;;;;;;;;;;;;;;4.31;88.61;100628.28;5085706;28;19916;-66
2022/01/28 01:06:28;;;;;;;;;;;;;;;4.31;88.09;100628.28;5095366;28;19923;-71
2022/01/28 01:08:53;;;;;;;;;;;;;;;4.33;88.14;100616.59;5100255;27;19915;-71
2022/01/28 01:11:21;;;;;;;;;;;;;;;4.23;88.64;100570.31;5108115;28;19919;-71
2022/01/28 01:13:47;;;;;;;;;;;;;;;4.13;89.53;100531.97;5100564;28;19927;-71
2022/01/28 01:16:15;;;;;;;;;;;;;;;4.13;89.25;100563.00;5098093;28;19911;-71
2022/01/28 01:18:53;;;;;;;;;;;;;;;4.15;89.46;100630.09;5106709;28;19920;-71
2022/01/28 01:21:24;;;;;;;;;;;;;;;4.05;89.42;100650.13;5095513;28;19915;-71
2022/01/28 01:23:53;;;;;;;;;;;;;;;4.10;89.29;100646.25;5085338;28;19966;-71
2022/01/28 01:26:19;;;;;;;;;;;;;;;4.13;89.26;100645.25;5098762;28;20344;-71
2022/01/28 01:28:46;;;;;;;;;;;;;;;4.06;89.35;100639.44;5098976;28;19912;-72
2022/01/28 01:31:16;;;;;;;;;;;;;;;4.00;90.09;100645.06;5091787;28;19926;-72
2022/01/28 01:33:51;;;;;;;;;;;;;;;4.00;90.46;100639.75;5101243;28;19966;-72
2022/01/28 01:36:16;;;;;;;;;;;;;;;4.00;90.88;100633.63;5091416;27;20279;-72
2022/01/28 01:38:42;;;;;;;;;;;;;;;4.04;90.77;100627.19;5098970;28;19915;-72
2022/01/28 01:41:14;;;;;;;;;;;;;;;3.97;91.19;100628.50;5099807;28;20014;-71
2022/01/28 01:44:04;;;;;;;;;;;;;;;3.97;91.03;100637.28;5101698;28;19919;-71
2022/01/28 01:52:02;;;;;;;;;;;;;;;4.12;90.78;100632.91;5099240;28;19965;-71
2022/01/28 01:54:28;;;;;;;;;;;;;;;4.08;91.27;100628.72;5097251;27;19932;-71
2022/01/28 01:56:54;;;;;;;;;;;;;;;4.07;91.11;100630.50;5104007;28;19972;-70
2022/01/28 01:59:19;;;;;;;;;;;;;;;4.08;91.37;100631.38;5086420;28;19967;-71
2022/01/28 02:01:45;;;;;;;;;;;;;;;4.06;91.45;100635.91;5081656;28;19911;-72
2022/01/28 02:04:10;;;;;;;;;;;;;;;4.08;91.40;100629.59;5098500;28;19915;-71
2022/01/28 02:06:36;;;;;;;;;;;;;;;4.07;91.15;100640.28;5084464;28;20001;-71
2022/01/28 02:09:01;;;;;;;;;;;;;;;4.01;91.75;100635.31;5083916;28;20360;-71
2022/01/28 02:11:26;;;;;;;;;;;;;;;4.09;91.46;100631.28;5102379;28;19922;-71
2022/01/28 02:13:52;;;;;;;;;;;;;;;4.07;91.83;100609.28;5096467;28;19916;-71
2022/01/28 02:16:18;;;;;;;;;;;;;;;4.16;90.98;100603.47;5099695;28;19916;-70
2022/01/28 02:18:43;;;;;;;;;;;;;;;4.13;91.18;100606.28;5096020;28;19969;-71
2022/01/28 02:21:11;;;;;;;;;;;;;;;4.14;91.57;100623.06;5099938;28;19939;-66
2022/01/28 02:23:38;;;;;;;;;;;;;;;4.21;90.68;100632.41;5079170;28;19925;-67
2022/01/28 02:26:04;;;;;;;;;;;;;;;4.22;90.54;100608.41;5093739;28;19920;-67
2022/01/28 02:28:33;;;;;;;;;;;;;;;4.21;90.84;100614.69;5097556;28;19933;-67
2022/01/28 02:31:00;;;;;;;;;;;;;;;4.30;90.26;100614.16;5081766;28;20391;-66
2022/01/28 02:33:26;;;;;;;;;;;;;;;4.32;90.09;100614.06;5096399;28;19911;-67
2022/01/28 02:35:52;;;;;;;;;;;;;;;4.25;90.15;100621.53;5085438;28;19938;-66
2022/01/28 02:38:20;;;;;;;;;;;;;;;4.23;90.82;100641.13;5084413;28;19916;-66
2022/01/28 02:40:50;;;;;;;;;;;;;;;4.25;90.20;100629.50;5078120;28;20378;-67
2022/01/28 02:45:48;;;;;;;;;;;;;;;4.15;90.98;100630.09;5093024;28;19919;-67
2022/01/28 02:48:18;;;;;;;;;;;;;;;4.13;91.01;100626.69;5090047;28;20006;-67
2022/01/28 02:50:59;;;;;;;;;;;;;;;4.08;91.33;100621.63;5080223;28;19953;-67
2022/01/28 02:53:37;;;;;;;;;;;;;;;4.03;91.63;100617.53;5076322;28;19916;-67
2022/01/28 02:56:11;;;;;;;;;;;;;;;4.04;92.21;100619.22;5067121;28;20022;-71
2022/01/28 02:58:36;;;;;;;;;;;;;;;3.97;92.35;100631.97;5065483;28;19958;-72
2022/01/28 03:01:02;;;;;;;;;;;;;;;3.95;92.66;100633.00;5064845;28;20369;-71
2022/01/28 03:03:27;;;;;;;;;;;;;;;3.91;93.11;100627.03;5081551;28;19920;-72
2022/01/28 03:05:53;;;;;;;;;;;;;;;3.87;93.34;100622.81;5071747;28;19951;-70
2022/01/28 03:08:23;;;;;;;;;;;;;;;3.84;93.70;100630.94;5069342;28;20030;-71
2022/01/28 03:16:10;;;;;;;;;;;;;;;3.77;94.17;100660.56;5070288;28;20012;-70
2022/01/28 03:18:50;;;;;;;;;;;;;;;3.77;94.23;100665.88;5071800;28;19912;-69
2022/01/28 03:23:56;;;;;;;;;;;;;;;3.74;94.77;100666.88;5069767;28;20002;-71
2022/01/28 03:26:24;;;;;;;;;;;;;;;3.68;95.32;100669.03;5078728;28;20003;-72
2022/01/28 03:28:49;;;;;;;;;;;;;;;3.66;95.54;100662.94;5077524;28;20337;-71
2022/01/28 03:31:15;;;;;;;;;;;;;;;3.63;95.66;100663.09;5058508;28;19916;-71
2022/01/28 03:33:40;;;;;;;;;;;;;;;3.58;95.44;100673.09;5070350;28;19969;-70
2022/01/28 03:36:09;;;;;;;;;;;;;;;3.55;95.56;100667.97;5076044;28;19912;-71
2022/01/28 03:38:35;;;;;;;;;;;;;;;3.55;95.79;100670.63;5082676;28;19912;-70
2022/01/28 03:41:00;;;;;;;;;;;;;;;3.57;95.95;100647.50;5082207;28;19956;-71
2022/01/28 03:43:25;;;;;;;;;;;;;;;3.52;95.75;100655.72;5067867;28;19923;-71
2022/01/28 03:45:51;;;;;;;;;;;;;;;3.53;96.08;100656.56;5071803;28;19972;-71
2022/01/28 03:48:16;;;;;;;;;;;;;;;3.49;96.19;100655.03;5077587;28;20015;-64
2022/01/28 03:50:41;;;;;;;;;;;;;;;3.56;95.77;100651.13;5078256;28;19935;-66
2022/01/28 03:53:07;;;;;;;;;;;;;;;3.55;95.54;100655.53;5078680;27;19959;-66
2022/01/28 03:55:35;;;;;;;;;;;;;;;3.55;95.80;100660.00;5099491;28;19935;-66
2022/01/28 03:58:00;;;;;;;;;;;;;;;3.61;95.06;100659.69;5096829;28;19912;-66
2022/01/28 04:00:29;;;;;;;;;;;;;;;3.63;94.67;100657.78;5085027;28;19930;-65
2022/01/28 04:03:24;;;;;;;;;;;;;;;3.60;94.44;100656.16;5102020;27;20399;-65
2022/01/28 04:13:48;;;;;;;;;;;;;;;3.45;93.85;100658.78;5103870;28;19911;-66
2022/01/28 04:16:30;;;;;;;;;;;;;;;3.42;93.16;100670.41;5098368;28;20030;-66
2022/01/28 04:18:56;;;;;;;;;;;;;;;3.32;93.92;100677.13;5095344;28;20731;-66
2022/01/28 04:21:22;;;;;;;;;;;;;;;3.27;93.76;100676.53;5087413;28;20281;-70
2022/01/28 04:23:47;;;;;;;;;;;;;;;3.24;93.87;100691.72;5085647;28;20572;-70
2022/01/28 04:26:12;;;;;;;;;;;;;;;3.20;93.48;100692.81;5092498;28;19984;-70
2022/01/28 04:28:38;;;;;;;;;;;;;;;3.14;93.62;100696.66;5104099;28;19915;-71
2022/01/28 04:31:03;;;;;;;;;;;;;;;3.16;93.55;100685.97;5079611;28;19941;-70
2022/01/28 04:33:29;;;;;;;;;;;;;;;3.05;94.26;100690.94;5104706;28;19922;-70
2022/01/28 04:35:56;;;;;;;;;;;;;;;3.00;94.22;100687.69;5099898;28;19923;-66
2022/01/28 04:38:41;;;;;;;;;;;;;;;2.98;94.96;100686.91;5094050;28;20019;-67
2022/01/28 04:41:16;;;;;;;;;;;;;;;3.01;95.09;100684.97;5093656;28;20376;-67
2022/01/28 04:43:48;;;;;;;;;;;;;;;3.14;94.67;100679.88;5088727;28;19966;-67
2022/01/28 04:46:29;;;;;;;;;;;;;;;3.09;94.95;100682.75;5084557;28;20339;-67
2022/01/28 04:49:11;;;;;;;;;;;;;;;3.05;95.50;100683.88;5088278;28;19918;-68
2022/01/28 04:52:30;;;;;;;;;;;;;;;3.10;95.39;100694.22;5086265;28;19919;-66
2022/01/28 05:00:42;;;;;;;;;;;;;;;3.12;96.25;100689.69;5019954;28;20623;-71
2022/01/28 05:25:06;;;;;;;;;;;;;;;3.31;93.90;100701.94;5094950;28;19972;-71
2022/01/28 05:27:15;;;;;;;;;;;;;;;3.31;93.63;100693.97;5095560;28;19930;-70
2022/01/28 05:29:41;;;;;;;;;;;;;;;3.31;93.41;100699.28;5098772;28;19923;-71
2022/01/28 05:32:07;;;;;;;;;;;;;;;3.34;93.73;100687.66;5096244;27;19920;-71
2022/01/28 05:34:33;;;;;;;;;;;;;;;3.38;93.13;100689.19;5082878;28;19966;-71
2022/01/28 05:36:58;;;;;;;;;;;;;;;3.36;93.37;100672.53;5094058;28;20291;-70
2022/01/28 05:39:23;;;;;;;;;;;;;;;3.44;92.73;100667.66;5094299;28;19922;-71
2022/01/28 05:41:49;;;;;;;;;;;;;;;3.67;90.78;100677.91;5097987;27;19959;-70
2022/01/28 05:44:14;;;;;;;;;;;;;;;3.72;89.69;100678.50;5098783;27;19923;-71
2022/01/28 05:46:39;;;;;;;;;;;;;;;3.74;89.85;100682.78;5081701;28;19919;-71
2022/01/28 05:49:05;;;;;;;;;;;;;;;3.85;88.32;100677.78;5092027;28;19918;-72
2022/01/28 05:51:31;;;;;;;;;;;;;;;3.92;87.72;100675.63;5100570;28;19953;-72
2022/01/28 05:53:57;;;;;;;;;;;;;;;3.89;87.94;100676.66;5093921;28;19959;-72
2022/01/28 05:56:23;;;;;;;;;;;;;;;3.95;87.77;100670.16;5095034;28;19912;-71
2022/01/28 05:58:49;;;;;;;;;;;;;;;3.99;87.49;100672.56;5093680;28;19943;-72
2022/01/28 06:01:14;;;;;;;;;;;;;;;4.05;86.71;100672.22;5094710;28;19999;-72
2022/01/28 06:03:39;;;;;;;;;;;;;;;4.12;85.82;100662.97;5100761;28;19988;-72
2022/01/28 06:06:05;;;;;;;;;;;;;;;4.30;84.42;100663.75;5106613;28;19912;-71
2022/01/28 06:08:30;;;;;;;;;;;;;;;4.27;84.17;100656.81;5096709;28;20003;-71
2022/01/28 06:10:55;;;;;;;;;;;;;;;4.33;83.91;100661.75;5099121;28;20411;-71
2022/01/28 06:13:20;;;;;;;;;;;;;;;4.40;83.12;100670.25;5102280;28;19911;-72
2022/01/28 06:15:46;;;;;;;;;;;;;;;4.39;83.08;100664.06;5100242;28;19911;-72
2022/01/28 06:18:11;;;;;;;;;;;;;;;4.34;83.21;100660.81;5099968;28;19926;-72
2022/01/28 06:20:37;;;;;;;;;;;;;;;4.41;82.38;100666.63;5104645;28;19920;-73
2022/01/28 06:23:03;;;;;;;;;;;;;;;4.47;81.99;100667.16;5087230;28;19988;-72
2022/01/28 06:25:33;;;;;;;;;;;;;;;4.42;82.21;100671.84;5081486;27;19919;-73
2022/01/28 06:27:58;;;;;;;;;;;;;;;4.51;81.52;100676.66;5100763;28;19998;-72
2022/01/28 06:30:25;;;;;;;;;;;;;;;4.57;80.79;100683.41;5100586;28;20053;-72
2022/01/28 06:32:50;;;;;;;;;;;;;;;4.54;80.67;100680.91;5104573;27;19986;-72
2022/01/28 06:35:15;;;;;;;;;;;;;;;4.55;80.93;100693.28;5104599;28;19947;-72
2022/01/28 06:37:42;;;;;;;;;;;;;;;4.51;81.20;100681.09;5100114;28;19912;-74
2022/01/28 06:40:08;;;;;;;;;;;;;;;4.57;80.30;100683.41;5108181;28;19919;-72
2022/01/28 06:42:34;;;;;;;;;;;;;;;4.61;80.27;100688.44;5103446;28;19912;-72
2022/01/28 06:44:59;;;;;;;;;;;;;;;4.58;79.93;100698.41;5091189;28;19916;-72
2022/01/28 06:47:26;;;;;;;;;;;;;;;4.52;80.12;100688.97;5101821;28;20574;-72
2022/01/28 06:49:51;;;;;;;;;;;;;;;4.59;79.75;100689.50;5105744;28;19977;-72
2022/01/28 06:52:16;;;;;;;;;;;;;;;4.80;78.41;100698.84;5102683;28;19939;-72
2022/01/28 06:54:42;;;;;;;;;;;;;;;4.83;77.45;100692.53;5106694;28;19927;-72
2022/01/28 06:57:07;;;;;;;;;;;;;;;4.86;77.50;100687.88;5102387;28;19916;-72
2022/01/28 06:59:32;;;;;;;;;;;;;;;4.87;77.14;100689.56;5102046;28;19911;-72
2022/01/28 07:01:57;;;;;;;;;;;;;;;4.87;77.18;100694.91;5106868;28;19919;-72
2022/01/28 07:04:23;;;;;;;;;;;;;;;4.95;76.42;100689.13;5097076;28;20011;-72
2022/01/28 07:06:48;;;;;;;;;;;;;;;4.89;77.11;100697.47;5102994;28;19920;-73
2022/01/28 07:09:14;;;;;;;;;;;;;;;4.84;77.48;100699.56;5107555;28;19911;-71
2022/01/28 07:11:39;;;;;;;;;;;;;;;4.85;77.60;100701.25;5108584;28;19920;-71
2022/01/28 07:14:04;;;;;;;;;;;;;;;5.11;75.67;100698.78;5104519;28;20364;-71
2022/01/28 07:16:30;;;;;;;;;;;;;;;5.10;75.70;100689.09;5108881;28;19915;-71
2022/01/28 07:18:55;;;;;;;;;;;;;;;5.18;75.19;100708.09;5095173;28;19943;-72
2022/01/28 07:21:20;;;;;;;;;;;;;;;5.17;75.48;100692.22;5094469;28;19919;-73
2022/01/28 07:23:46;;;;;;;;;;;;;;;5.23;75.12;100692.75;5108201;28;20056;-73
2022/01/28 07:26:11;;;;;;;;;;;;;;;5.32;74.62;100708.13;5100701;28;19912;-73
2022/01/28 07:28:39;;;;;;;;;;;;;;;5.26;74.57;100700.53;5107319;28;19915;-73
2022/01/28 07:31:04;;;;;;;;;;;;;;;5.50;73.50;100712.34;5104468;28;19926;-73
2022/01/28 07:33:29;;;;;;;;;;;;;;;5.40;73.49;100705.88;5095703;28;20280;-73
2022/01/28 07:35:55;;;;;;;;;;;;;;;5.58;72.29;100712.72;5102462;28;20387;-72
2022/01/28 07:38:20;;;;;;;;;;;;;;;5.56;72.63;100713.75;5108748;28;19912;-72
2022/01/28 07:40:45;;;;;;;;;;;;;;;5.63;71.73;100718.63;5101050;28;19912;-71
2022/01/28 07:43:10;;;;;;;;;;;;;;;5.61;72.18;100712.53;5103796;28;19985;-72
2022/01/28 07:45:36;;;;;;;;;;;;;;;5.68;71.29;100718.34;5107181;28;20023;-72
2022/01/28 07:48:01;;;;;;;;;;;;;;;5.89;69.42;100709.91;5104705;28;19919;-72
2022/01/28 07:50:26;;;;;;;;;;;;;;;5.95;69.26;100714.00;5106295;28;20431;-72
2022/01/28 07:52:52;;;;;;;;;;;;;;;5.98;68.45;100711.16;5103987;28;20372;-72
2022/01/28 07:55:17;;;;;;;;;;;;;;;5.99;68.14;100729.69;5106046;28;19930;-72
2022/01/28 07:57:43;;;;;;;;;;;;;;;5.86;69.03;100706.56;5103844;28;21682;-66
2022/01/28 08:00:09;;;;;;;;;;;;;;;5.91;68.81;100723.13;5102908;28;19965;-66
2022/01/28 08:02:35;;;;;;;;;;;;;;;5.92;68.29;100715.06;5098786;28;20372;-66
2022/01/28 08:05:00;;;;;;;;;;;;;;;5.96;67.98;100715.69;5102476;28;19966;-66
2022/01/28 08:07:25;;;;;;;;;;;;;;;6.01;67.63;100724.25;5095903;28;19912;-66
2022/01/28 08:09:51;;;;;;;;;;;;;;;6.12;66.53;100706.66;5098345;27;19915;-66
2022/01/28 08:12:16;;;;;;;;;;;;;;;6.41;65.36;100703.00;5100537;28;19937;-66
2022/01/28 08:14:42;;;;;;;;;;;;;;;6.26;65.67;100706.63;5103361;28;19994;-72
2022/01/28 08:17:08;;;;;;;;;;;;;;;6.37;65.74;100704.16;5102745;28;19918;-72
2022/01/28 08:19:33;;;;;;;;;;;;;;;6.36;65.57;100705.09;5106677;28;19916;-72
2022/01/28 08:21:58;;;;;;;;;;;;;;;6.40;65.08;100719.94;5105080;28;19918;-73
2022/01/28 08:24:24;;;;;;;;;;;;;;;6.37;65.15;100727.25;5108716;28;20294;-73
2022/01/28 08:26:49;;;;;;;;;;;;;;;6.51;63.76;100736.06;5106351;28;19911;-73
2022/01/28 08:29:14;;;;;;;;;;;;;;;6.51;64.34;100738.75;5097137;28;19938;-66
2022/01/28 08:31:40;;;;;;;;;;;;;;;6.53;63.59;100730.66;5098075;28;20368;-68
2022/01/28 08:34:05;;;;;;;;;;;;;;;6.65;63.00;100730.69;5104932;28;19919;-73
2022/01/28 08:36:31;;;;;;;;;;;;;;;6.75;61.85;100745.13;5108086;28;19912;-73
2022/01/28 08:38:56;;;;;;;;;;;;;;;6.63;61.75;100745.94;5107072;28;20372;-73
2022/01/28 08:41:22;;;;;;;;;;;;;;;6.63;62.56;100753.06;5103120;28;20270;-73
2022/01/28 08:43:48;;;;;;;;;;;;;;;6.61;62.42;100763.00;5108994;28;20420;-72
2022/01/28 08:46:13;;;;;;;;;;;;;;;6.61;62.31;100755.84;5090225;28;19923;-73
2022/01/28 08:48:39;;;;;;;;;;;;;;;6.80;60.36;100758.16;5103013;28;19973;-72
2022/01/28 08:51:04;;;;;;;;;;;;;;;6.77;60.15;100761.88;5100984;28;20026;-66
2022/01/28 08:53:30;;;;;;;;;;;;;;;6.97;59.17;100755.25;5102696;28;19923;-67
2022/01/28 08:55:55;;;;;;;;;;;;;;;7.02;59.24;100757.63;5103234;28;19945;-67
2022/01/28 08:58:21;;;;;;;;;;;;;;;7.03;59.12;100747.69;5106932;28;19933;-68
2022/01/28 09:00:48;;;;;;;;;;;;;;;6.97;58.90;100745.44;5100259;28;19964;-66
2022/01/28 09:03:16;;;;;;;;;;;;;;;6.93;59.07;100759.06;5089006;28;20014;-67
2022/01/28 09:05:42;;;;;;;;;;;;;;;7.03;57.37;100766.38;5101336;28;19918;-67
2022/01/28 09:08:09;;;;;;;;;;;;;;;7.13;57.74;100771.97;5100118;28;19916;-67
2022/01/28 09:10:37;;;;;;;;;;;;;;;6.96;58.33;100778.41;5097008;28;20405;-67
2022/01/28 09:15:34;;;;;;;;;;;;;;;7.10;57.40;100766.81;5101840;28;19919;-66
2022/01/28 09:18:00;;;;;;;;;;;;;;;7.10;56.69;100749.97;5102666;28;19939;-66
2022/01/28 09:20:25;;;;;;;;;;;;;;;7.08;57.11;100747.41;5101519;28;19958;-67
2022/01/28 09:22:51;;;;;;;;;;;;;;;7.17;56.85;100753.91;5104153;27;19924;-67
2022/01/28 09:25:16;;;;;;;;;;;;;;;7.17;56.21;100759.25;5094351;28;19973;-67
2022/01/28 09:27:42;;;;;;;;;;;;;;;7.37;55.90;100748.97;5101932;28;19919;-67
2022/01/28 09:30:07;;;;;;;;;;;;;;;7.37;55.16;100764.09;5097469;28;20002;-67
2022/01/28 09:32:33;;;;;;;;;;;;;;;7.31;55.92;100748.50;5106132;28;21644;-66
2022/01/28 09:34:58;;;;;;;;;;;;;;;7.36;55.08;100776.59;5103513;28;19915;-66
2022/01/28 09:37:23;;;;;;;;;;;;;;;7.37;54.42;100756.97;5099898;28;20010;-66
2022/01/28 09:39:49;;;;;;;;;;;;;;;7.67;51.74;100754.84;5099789;28;19916;-67
2022/01/28 09:42:16;;;;;;;;;;;;;;;7.75;51.19;100763.22;5098358;28;19915;-72
2022/01/28 09:44:43;;;;;;;;;;;;;;;7.58;51.78;100773.34;5105684;28;20022;-72
2022/01/28 09:47:12;;;;;;;;;;;;;;;7.52;52.39;100760.41;5103933;28;19931;-73
2022/01/28 09:49:39;;;;;;;;;;;;;;;7.51;52.49;100756.88;5099448;28;19950;-73
2022/01/28 09:52:05;;;;;;;;;;;;;;;7.46;51.78;100756.34;5101668;28;20010;-72
2022/01/28 09:54:31;;;;;;;;;;;;;;;7.61;50.93;100765.13;5100634;28;20451;-73
2022/01/28 09:56:57;;;;;;;;;;;;;;;7.66;50.36;100770.97;5100099;28;20006;-72
2022/01/28 09:59:23;;;;;;;;;;;;;;;7.68;49.86;100758.41;5099549;28;20346;-66
2022/01/28 10:01:49;;;;;;;;;;;;;;;7.66;50.59;100765.66;5096308;28;20035;-67
2022/01/28 10:04:17;;;;;;;;;;;;;;;7.79;49.60;100751.34;5102652;28;19916;-67
2022/01/28 10:06:43;;;;;;;;;;;;;;;7.87;49.30;100742.81;5100201;28;19912;-67
2022/01/28 10:09:09;;;;;;;;;;;;;;;7.93;49.46;100747.72;5092814;28;19998;-67
2022/01/28 10:11:36;;;;;;;;;;;;;;;7.93;48.81;100747.72;5100773;28;19922;-67
2022/01/28 10:14:07;;;;;;;;;;;;;;;8.13;49.79;100756.03;5083788;28;19922;-67
2022/01/28 10:16:33;;;;;;;;;;;;;;;8.13;50.17;100765.88;5094369;28;19912;-65
2022/01/28 10:18:59;;;;;;;;;;;;;;;8.20;50.16;100775.16;5099931;28;19926;-65
2022/01/28 10:21:32;;;;;;;;;;;;;;;8.26;49.58;100778.25;5100906;28;20360;-65
2022/01/28 10:24:05;;;;;;;;;;;;;;;8.29;49.47;100779.88;5082046;28;19920;-66
2022/01/28 10:26:30;;;;;;;;;;;;;;;8.42;49.09;100786.06;5098835;28;19912;-67
2022/01/28 10:28:56;;;;;;;;;;;;;;;8.67;48.93;100775.28;5083519;28;19918;-66
2022/01/28 10:31:21;;;;;;;;;;;;;;;8.70;48.72;100764.38;5086587;28;20044;-66
2022/01/28 10:33:47;;;;;;;;;;;;;;;8.72;48.57;100757.09;5091859;28;20327;-66
2022/01/28 10:36:22;;;;;;;;;;;;;;;8.72;47.72;100773.16;5098088;28;19942;-66
2022/01/28 10:38:47;;;;;;;;;;;;;;;8.65;47.29;100759.34;5095362;28;19935;-66
2022/01/28 10:41:13;;;;;;;;;;;;;;;8.47;47.43;100765.19;5100662;28;20609;-66
2022/01/28 10:43:57;;;;;;;;;;;;;;;8.50;47.49;100759.63;5083927;28;20597;-66
2022/01/28 10:46:24;;;;;;;;;;;;;;;8.47;48.26;100754.50;5095548;28;20350;-66
2022/01/28 10:49:01;;;;;;;;;;;;;;;8.52;48.11;100757.72;5104604;28;20276;-72
2022/01/28 10:51:40;;;;;;;;;;;;;;;8.54;47.01;100755.75;5102345;28;19912;-72
2022/01/28 10:54:12;;;;;;;;;;;;;;;8.67;46.58;100762.78;5102396;28;20394;-74
2022/01/28 10:56:54;;;;;;;;;;;;;;;8.74;45.81;100772.06;5100228;28;19911;-74
2022/01/28 10:59:21;;;;;;;;;;;;;;;8.92;44.89;100760.03;5100701;28;19976;-66
2022/01/28 11:01:47;;;;;;;;;;;;;;;8.81;44.52;100767.97;5097557;28;20245;-67
2022/01/28 11:04:14;;;;;;;;;;;;;;;8.97;44.61;100759.69;5085454;28;19966;-67
2022/01/28 11:06:40;;;;;;;;;;;;;;;8.80;44.88;100746.69;5091106;28;21635;-67
2022/01/28 11:09:06;;;;;;;;;;;;;;;8.69;45.31;100744.81;5096359;28;19943;-66
2022/01/28 11:11:32;;;;;;;;;;;;;;;8.76;44.92;100745.22;5094275;28;19970;-73
2022/01/28 11:13:58;;;;;;;;;;;;;;;8.65;44.78;100742.47;5103477;28;20356;-73
2022/01/28 11:16:24;;;;;;;;;;;;;;;8.54;45.09;100753.09;5096565;28;19912;-73
2022/01/28 11:18:50;;;;;;;;;;;;;;;8.44;45.50;100754.72;5096276;28;19912;-73
2022/01/28 11:21:17;;;;;;;;;;;;;;;8.57;44.47;100734.16;5085760;28;19957;-73
2022/01/28 11:24:01;;;;;;;;;;;;;;;8.55;44.78;100731.59;5096945;28;19955;-73
2022/01/28 11:26:35;;;;;;;;;;;;;;;8.48;44.84;100750.88;5088350;28;20276;-72
2022/01/28 11:29:08;;;;;;;;;;;;;;;8.61;44.91;100739.16;5102923;28;19956;-72
2022/01/28 11:31:54;;;;;;;;;;;;;;;8.59;44.58;100753.63;5101366;28;19919;-73
2022/01/28 11:34:23;;;;;;;;;;;;;;;8.82;43.96;100768.84;5100794;28;20338;-72
2022/01/28 11:36:49;;;;;;;;;;;;;;;8.75;44.04;100748.88;5097655;28;19920;-72
2022/01/28 11:39:23;;;;;;;;;;;;;;;8.60;44.58;100753.50;5101038;28;19916;-71
2022/01/28 11:42:02;;;;;;;;;;;;;;;8.61;44.15;100738.34;5102665;28;20038;-72
2022/01/28 11:44:36;;;;;;;;;;;;;;;8.67;43.91;100732.50;5099962;28;19931;-73
2022/01/28 11:47:02;;;;;;;;;;;;;;;8.68;43.38;100734.25;5087034;28;19919;-67
2022/01/28 11:49:27;;;;;;;;;;;;;;;8.85;43.58;100737.38;5087998;28;19975;-71
2022/01/28 11:51:52;;;;;;;;;;;;;;;8.77;44.14;100752.28;5102389;28;20402;-72
2022/01/28 11:54:22;;;;;;;;;;;;;;;8.87;44.29;100742.63;5103145;28;20056;-72
2022/01/28 11:56:56;;;;;;;;;;;;;;;9.04;44.39;100745.75;5103026;28;20292;-72
2022/01/28 11:59:25;;;;;;;;;;;;;;;9.11;44.72;100740.78;5099452;28;20340;-72
2022/01/28 12:01:54;;;;;;;;;;;;;;;9.22;44.82;100738.13;5108501;28;20248;-71
2022/01/28 12:04:25;;;;;;;;;;;;;;;9.01;45.44;100737.09;5099449;28;19932;-71
2022/01/28 12:06:54;;;;;;;;;;;;;;;8.85;45.93;100737.38;5108300;28;19915;-71
2022/01/28 12:09:20;;;;;;;;;;;;;;;8.79;45.82;100737.84;5105322;28;19919;-72
2022/01/28 12:11:45;;;;;;;;;;;;;;;8.74;46.42;100739.13;5089419;28;19916;-72
2022/01/28 12:14:13;;;;;;;;;;;;;;;8.80;46.19;100742.19;5101557;28;20379;-72
2022/01/28 12:16:42;;;;;;;;;;;;;;;8.86;46.17;100754.25;5106311;28;20207;-72
2022/01/28 12:19:18;;;;;;;;;;;;;;;8.94;45.49;100744.69;5106777;28;19919;-72
2022/01/28 12:22:02;;;;;;;;;;;;;;;8.91;45.71;100746.75;5106299;28;19912;-72
2022/01/28 12:24:27;;;;;;;;;;;;;;;8.94;46.12;100749.22;5103823;28;19915;-72
2022/01/28 12:26:58;;;;;;;;;;;;;;;9.02;45.59;100753.03;5095666;28;19919;-72
2022/01/28 12:29:34;;;;;;;;;;;;;;;8.80;46.42;100760.06;5093836;28;19920;-73
2022/01/28 12:32:00;;;;;;;;;;;;;;;8.73;46.95;100753.47;5101348;28;19919;-72
2022/01/28 12:34:26;;;;;;;;;;;;;;;8.60;47.82;100758.84;5103883;28;20308;-71
2022/01/28 12:36:52;;;;;;;;;;;;;;;8.62;47.87;100756.94;5104119;28;19919;-72
2022/01/28 12:39:31;;;;;;;;;;;;;;;8.63;47.73;100765.78;5102169;28;19912;-72
2022/01/28 12:42:05;;;;;;;;;;;;;;;8.63;47.83;100760.44;5107036;28;20359;-73
2022/01/28 12:44:31;;;;;;;;;;;;;;;8.68;47.66;100752.97;5092895;28;19916;-68
2022/01/28 12:47:03;;;;;;;;;;;;;;;8.81;46.90;100743.91;5095566;28;19919;-68
2022/01/28 12:49:29;;;;;;;;;;;;;;;8.72;46.80;100754.44;5102036;28;20965;-68
2022/01/28 12:51:58;;;;;;;;;;;;;;;8.57;47.14;100744.84;5105132;28;19918;-68
2022/01/28 12:54:37;;;;;;;;;;;;;;;8.58;47.38;100747.41;5088156;28;19961;-68
2022/01/28 12:57:03;;;;;;;;;;;;;;;8.55;48.57;100757.50;5098347;28;19912;-68
2022/01/28 12:59:29;;;;;;;;;;;;;;;8.51;48.76;100753.31;5092725;28;19916;-71
2022/01/28 13:01:55;;;;;;;;;;;;;;;8.64;48.40;100759.50;5103476;28;21799;-71
2022/01/28 13:04:24;;;;;;;;;;;;;;;8.60;48.31;100750.84;5105653;28;20019;-72
2022/01/28 13:09:15;;;;;;;;;;;;;;;8.34;48.44;100775.06;5098427;28;20313;-72
2022/01/28 13:11:42;;;;;;;;;;;;;;;8.35;48.78;100760.75;5100104;28;20544;-72
2022/01/28 13:14:07;;;;;;;;;;;;;;;8.28;49.21;100754.97;5103205;28;19964;-71
2022/01/28 13:16:35;;;;;;;;;;;;;;;8.21;49.52;100753.69;5098145;28;19954;-71
2022/01/28 13:19:01;;;;;;;;;;;;;;;8.10;49.86;100756.22;5095140;28;19964;-66
2022/01/28 13:21:28;;;;;;;;;;;;;;;8.13;50.27;100752.50;5096801;28;19926;-67
2022/01/28 13:24:22;;;;;;;;;;;;;;;8.11;50.55;100762.44;5085496;28;20580;-67
2022/01/28 13:26:55;;;;;;;;;;;;;;;8.22;49.88;100755.41;5092618;28;19951;-67
2022/01/28 13:29:29;;;;;;;;;;;;;;;8.08;50.21;100762.66;5102118;28;20411;-72
2022/01/28 13:31:58;;;;;;;;;;;;;;;7.97;50.97;100763.41;5104073;28;20253;-71
2022/01/28 13:34:23;;;;;;;;;;;;;;;8.02;50.32;100768.44;5101128;28;19946;-72
2022/01/28 13:36:50;;;;;;;;;;;;;;;7.93;50.58;100771.75;5103530;28;19912;-71
2022/01/28 13:39:22;;;;;;;;;;;;;;;7.99;50.37;100772.19;5102406;28;19911;-72
2022/01/28 13:42:04;;;;;;;;;;;;;;;7.95;50.60;100783.19;5103316;27;19922;-71
2022/01/28 13:44:32;;;;;;;;;;;;;;;7.92;50.40;100780.72;5108539;28;20007;-72
2022/01/28 13:46:59;;;;;;;;;;;;;;;8.12;49.81;100813.09;5091711;28;20049;-71
2022/01/28 13:49:37;;;;;;;;;;;;;;;8.11;49.43;100795.38;5089786;28;20435;-71
2022/01/28 13:52:42;;;;;;;;;;;;;;;7.96;50.15;100795.59;5104714;28;19919;-71
2022/01/28 13:55:26;;;;;;;;;;;;;;;7.98;49.52;100790.97;5107751;28;19954;-72
2022/01/28 13:57:59;;;;;;;;;;;;;;;7.89;49.91;100797.81;5100642;28;19916;-72
2022/01/28 14:00:34;;;;;;;;;;;;;;;7.90;49.95;100798.69;5086081;28;19911;-71
2022/01/28 14:02:59;;;;;;;;;;;;;;;7.96;49.60;100806.28;5099653;27;19985;-71
2022/01/28 14:05:24;;;;;;;;;;;;;;;7.89;49.87;100803.16;5104545;27;20456;-72
2022/01/28 14:07:53;;;;;;;;;;;;;;;8.03;49.78;100797.69;5105084;28;19916;-71
2022/01/28 14:10:19;;;;;;;;;;;;;;;8.01;49.34;100812.13;5094622;28;19961;-72
2022/01/28 14:12:52;;;;;;;;;;;;;;;7.92;49.36;100816.31;5106407;28;20951;-72
2022/01/28 14:15:32;;;;;;;;;;;;;;;8.01;49.15;100798.78;5087531;28;19922;-72